Time;durP1;ratioP1;P1;durP2;ratioP2;P2;SDS_P1;SDS_P2;PMS_P1;PMS_P2;Temp;Humidity;BMP_temperature;BMP_pressure;BME280_temperature;BME280_humidity;BME280_pressure;Samples;Min_cycle;Max_cycle;Signal;HPM_P1;HPM_P2
2022/07/10 00:01:06;;;;;;;3.47;2.70;;;;;;;15.16;65.80;100406.75;2082681;85;28634;-69
2022/07/10 00:04:14;;;;;;;4.67;2.83;;;;;;;15.18;65.92;100399.42;2031997;85;33253;-70
2022/07/10 00:07:18;;;;;;;5.78;2.77;;;;;;;15.18;66.16;100400.77;2081426;85;32998;-70
2022/07/10 00:10:28;;;;;;;4.03;2.15;;;;;;;15.18;66.12;100404.81;2080410;85;27913;-70
2022/07/10 00:13:37;;;;;;;4.72;2.67;;;;;;;15.14;66.15;100397.39;2080587;85;27887;-70
2022/07/10 00:16:45;;;;;;;5.40;2.92;;;;;;;15.11;66.21;100408.41;2079351;85;29120;-73
2022/07/10 00:19:50;;;;;;;3.47;2.65;;;;;;;14.94;66.26;100384.39;2053223;85;31030;-73
2022/07/10 00:22:56;;;;;;;3.95;2.42;;;;;;;15.01;66.62;100401.42;2081255;85;33955;-70
2022/07/10 00:25:58;;;;;;;4.17;2.40;;;;;;;14.95;66.63;100396.42;2084712;85;29324;-70
2022/07/10 00:29:00;;;;;;;6.65;3.08;;;;;;;14.89;66.65;100392.80;2084625;85;27993;-71
2022/07/10 00:32:04;;;;;;;5.60;3.00;;;;;;;14.84;66.86;100402.52;2060723;85;28770;-70
2022/07/10 00:35:10;;;;;;;3.77;2.90;;;;;;;14.78;66.98;100393.97;2081570;85;31067;-73
2022/07/10 00:38:16;;;;;;;3.27;2.80;;;;;;;14.71;67.32;100389.00;2084712;85;32817;-71
2022/07/10 00:41:23;;;;;;;4.45;2.70;;;;;;;14.66;67.36;100392.44;2081202;85;29330;-73
2022/07/10 00:44:35;;;;;;;3.75;2.60;;;;;;;14.55;67.45;100383.70;2080374;85;27743;-73
2022/07/10 00:47:47;;;;;;;3.17;2.67;;;;;;;14.50;67.59;100394.41;2079916;85;28012;-73
2022/07/10 00:50:52;;;;;;;3.30;3.00;;;;;;;14.43;67.81;100396.63;2079922;85;31114;-72
2022/07/10 00:53:56;;;;;;;4.08;3.08;;;;;;;14.37;68.03;100388.46;2080258;85;32967;-74
2022/07/10 00:56:59;;;;;;;3.25;2.75;;;;;;;14.31;68.24;100392.03;2056313;85;29328;-73
2022/07/10 01:00:01;;;;;;;6.67;3.05;;;;;;;14.26;68.32;100389.61;2033890;85;27874;-75
2022/07/10 01:03:04;;;;;;;3.85;3.08;;;;;;;14.20;68.55;100388.17;2083544;85;28654;-71
2022/07/10 01:06:07;;;;;;;4.65;3.17;;;;;;;14.16;68.58;100385.78;2056267;85;31060;-72
2022/07/10 01:09:09;;;;;;;4.78;3.58;;;;;;;14.11;68.80;100386.93;2033859;85;33022;-73
2022/07/10 01:12:12;;;;;;;5.17;3.37;;;;;;;14.06;69.13;100386.37;2083572;85;29328;-73
2022/07/10 01:15:15;;;;;;;4.22;2.98;;;;;;;14.01;69.12;100394.33;2083737;85;27924;-73
2022/07/10 01:18:17;;;;;;;4.70;3.05;;;;;;;13.95;69.30;100391.08;2055710;85;29051;-73
2022/07/10 01:21:31;;;;;;;5.20;2.98;;;;;;;13.90;69.53;100386.95;2083222;85;30902;-72
2022/07/10 01:24:33;;;;;;;6.00;3.60;;;;;;;13.87;69.61;100384.45;2082990;85;33143;-71
2022/07/10 01:27:36;;;;;;;9.48;3.60;;;;;;;13.79;69.79;100392.50;2082509;85;29470;-72
2022/07/10 01:30:38;;;;;;;5.22;3.40;;;;;;;13.75;69.89;100397.69;2054936;85;27688;-72
2022/07/10 01:33:44;;;;;;;6.80;3.33;;;;;;;13.70;70.09;100399.81;2082372;85;28697;-70
2022/07/10 01:36:53;;;;;;;5.15;3.95;;;;;;;13.64;70.20;100402.41;2078999;85;31019;-70
2022/07/10 01:40:00;;;;;;;5.53;3.25;;;;;;;13.60;70.41;100407.58;2078323;85;33035;-69
2022/07/10 01:43:05;;;;;;;4.80;3.27;;;;;;;13.56;70.50;100393.06;2079177;85;29533;-69
2022/07/10 01:46:13;;;;;;;5.33;3.45;;;;;;;13.51;70.52;100400.93;2078787;85;28028;-69
2022/07/10 01:49:29;;;;;;;6.25;3.60;;;;;;;13.47;70.59;100389.11;2078135;85;28443;-70
2022/07/10 01:52:38;;;;;;;5.40;3.62;;;;;;;13.42;70.89;100396.08;2079762;85;31102;-69
2022/07/10 01:55:49;;;;;;;5.62;3.42;;;;;;;13.37;71.01;100393.64;2078225;85;33164;-71
2022/07/10 01:58:53;;;;;;;4.85;3.70;;;;;;;13.34;71.04;100392.47;2078605;85;29398;-71
2022/07/10 02:02:02;;;;;;;6.20;3.27;;;;;;;13.32;71.13;100389.50;2053008;85;27736;-69
2022/07/10 02:05:13;;;;;;;5.25;3.50;;;;;;;13.27;71.23;100395.16;2078933;85;28688;-70
2022/07/10 02:08:20;;;;;;;5.37;3.50;;;;;;;13.24;71.34;100392.65;2078087;85;31137;-69
2022/07/10 02:11:25;;;;;;;4.97;4.25;;;;;;;13.20;71.49;100395.12;2078336;85;32983;-70
2022/07/10 02:14:32;;;;;;;;;;;;;;;13.16;71.68;100402.52;2081549;85;29326;-70
2022/07/10 02:17:39;;;;;;;6.60;4.40;;;;;;;13.14;72.05;100406.27;2079384;85;28058;-69
2022/07/10 02:20:49;;;;;;;10.15;4.28;;;;;;;13.12;72.26;100409.03;2079818;85;28703;-66
2022/07/10 02:24:01;;;;;;;7.30;4.55;;;;;;;13.13;72.44;100405.38;2079719;85;31036;-66
2022/07/10 02:27:11;;;;;;;4.72;4.05;;;;;;;13.17;72.63;100402.91;2078994;85;33135;-68
2022/07/10 02:30:15;;;;;;;7.83;4.65;;;;;;;13.21;72.80;100397.74;2079355;85;29350;-69
2022/07/10 02:33:26;;;;;;;6.80;4.45;;;;;;;13.20;72.99;100387.05;2052218;85;27847;-69
2022/07/10 02:36:37;;;;;;;6.30;4.83;;;;;;;13.31;73.01;100398.06;2053827;85;28652;-69
2022/07/10 02:39:42;;;;;;;7.78;3.92;;;;;;;13.35;73.04;100400.94;2079408;85;31055;-68
2022/07/10 02:42:46;;;;;;;3.10;2.80;;;;;;;13.37;73.07;100392.80;2079924;85;32956;-69
2022/07/10 02:45:52;;;;;;;8.28;3.83;;;;;;;13.39;73.07;100396.27;2079839;85;29347;-69
2022/07/10 02:48:59;;;;;;;6.08;3.98;;;;;;;13.40;73.17;100392.65;2079987;85;27746;-68
2022/07/10 02:52:04;;;;;;;4.58;3.80;;;;;;;13.40;73.20;100396.69;2079317;85;28653;-68
2022/07/10 02:55:15;;;;;;;5.75;3.42;;;;;;;13.41;73.27;100392.16;2079209;85;30999;-68
2022/07/10 02:58:25;;;;;;;4.22;3.50;;;;;;;13.44;73.33;100398.70;2078168;85;30019;-67
2022/07/10 03:01:33;;;;;;;5.45;3.92;;;;;;;13.47;73.44;100396.69;2079613;85;29390;-70
2022/07/10 03:04:37;;;;;;;5.03;3.77;;;;;;;13.50;73.54;100397.84;2085306;85;27738;-70
2022/07/10 03:07:42;;;;;;;5.60;3.77;;;;;;;13.55;73.62;100404.30;2085187;85;28662;-70
2022/07/10 03:10:49;;;;;;;8.45;4.00;;;;;;;13.58;73.60;100407.27;2085060;85;31025;-70
2022/07/10 03:14:00;;;;;;;4.53;3.60;;;;;;;13.61;73.57;100407.97;2059183;85;34755;-69
2022/07/10 03:17:11;;;;;;;4.00;3.20;;;;;;;13.66;73.76;100401.80;2084150;85;29540;-69
2022/07/10 03:20:18;;;;;;;5.35;3.15;;;;;;;13.74;73.69;100404.03;2084643;85;28092;-73
2022/07/10 03:23:26;;;;;;;6.75;3.37;;;;;;;13.80;73.69;100400.97;2085005;84;28863;-71
2022/07/10 03:26:30;;;;;;;7.95;3.70;;;;;;;13.86;73.55;100396.17;2085314;85;30880;-71
2022/07/10 03:29:39;;;;;;;8.05;3.17;;;;;;;13.92;73.49;100398.00;2085884;85;33007;-69
2022/07/10 03:32:49;;;;;;;3.45;2.65;;;;;;;13.98;73.48;100400.30;2087422;85;29799;-68
2022/07/10 03:36:00;;;;;;;3.45;2.77;;;;;;;14.05;73.20;100403.97;2088112;84;27943;-69
2022/07/10 03:39:08;;;;;;;5.70;3.15;;;;;;;14.09;72.93;100405.02;2090896;85;29555;-69
2022/07/10 03:42:20;;;;;;;6.15;2.58;;;;;;;14.13;72.81;100393.59;2088126;85;31058;-68
2022/07/10 03:45:34;;;;;;;5.55;2.92;;;;;;;14.14;72.42;100392.63;2087917;84;33476;-69
2022/07/10 03:48:42;;;;;;;7.15;2.58;;;;;;;14.15;72.34;100397.02;2087302;84;29779;-71
2022/07/10 03:51:48;;;;;;;4.17;2.40;;;;;;;14.17;72.12;100399.64;2088445;85;27946;-71
2022/07/10 03:54:50;;;;;;;4.97;2.52;;;;;;;14.19;72.04;100397.72;2064277;85;28607;-70
2022/07/10 03:58:06;;;;;;;4.53;2.10;;;;;;;14.20;71.91;100400.80;2060952;85;31199;-69
2022/07/10 04:01:09;;;;;;;5.45;2.58;;;;;;;14.25;71.95;100400.88;2086090;85;32787;-70
2022/07/10 04:04:12;;;;;;;5.75;2.83;;;;;;;14.42;72.04;100403.84;2083668;85;29586;-70
2022/07/10 04:07:14;;;;;;;5.12;1.87;;;;;;;14.61;71.83;100403.14;2082532;85;27881;-72
2022/07/10 04:10:16;;;;;;;6.03;2.55;;;;;;;14.77;71.57;100412.46;2018970;87;30074;-71
2022/07/10 04:13:18;;;;;;;4.22;2.22;;;;;;;14.88;71.41;100409.95;2020638;87;31331;-72
2022/07/10 04:16:27;;;;;;;5.80;2.17;;;;;;;14.93;71.21;100404.24;2039911;87;34287;-71
2022/07/10 04:19:35;;;;;;;4.60;2.10;;;;;;;14.83;70.51;100388.65;2039648;87;30593;-73
2022/07/10 04:22:43;;;;;;;3.80;2.30;;;;;;;14.83;70.51;100388.65;2039639;87;27942;-71
2022/07/10 04:25:51;;;;;;;2.17;1.67;;;;;;;14.99;70.39;100407.39;2018331;87;28663;-70
2022/07/10 04:28:59;;;;;;;5.53;1.98;;;;;;;15.02;70.34;100405.84;2040209;87;31018;-71
2022/07/10 04:32:01;;;;;;;5.28;2.27;;;;;;;15.08;70.06;100399.17;2020894;87;34398;-71
2022/07/10 04:35:05;;;;;;;5.62;2.08;;;;;;;15.17;70.10;100402.58;2016531;87;30966;-71
2022/07/10 04:38:12;;;;;;;3.20;1.87;;;;;;;15.38;69.21;100394.50;1998846;87;27986;-70
2022/07/10 04:41:21;;;;;;;9.10;1.85;;;;;;;15.38;69.21;100394.50;2038680;87;28197;-70
2022/07/10 04:44:30;;;;;;;5.15;1.90;;;;;;;15.53;69.37;100395.27;2011778;87;31055;-70
2022/07/10 04:47:36;;;;;;;6.00;2.10;;;;;;;15.69;69.18;100397.28;2056934;85;33351;-70
2022/07/10 04:50:46;;;;;;;3.50;1.98;;;;;;;15.79;68.99;100392.98;2081451;85;29329;-70
2022/07/10 04:53:55;;;;;;;8.08;2.30;;;;;;;15.85;68.68;100394.85;2080806;85;28061;-70
2022/07/10 04:57:04;;;;;;;6.67;2.20;;;;;;;15.81;68.63;100375.30;2054585;85;28662;-70
2022/07/10 05:00:11;;;;;;;5.58;2.17;;;;;;;15.81;68.63;100375.30;2084858;85;31094;-71
2022/07/10 05:03:18;;;;;;;5.55;1.92;;;;;;;15.97;68.18;100382.36;2085378;85;33057;-71
2022/07/10 05:06:26;;;;;;;4.05;2.27;;;;;;;16.21;68.28;100399.53;2085716;85;29366;-71
2022/07/10 05:09:33;;;;;;;4.55;1.75;;;;;;;16.37;68.01;100397.07;2054107;86;28111;-72
2022/07/10 05:12:37;;;;;;;3.67;2.15;;;;;;;16.39;67.28;100388.33;2055090;86;28765;-71
2022/07/10 05:15:46;;;;;;;6.70;1.75;;;;;;;16.37;67.17;100395.22;2050012;86;31553;-70
2022/07/10 05:18:55;;;;;;;9.15;2.30;;;;;;;16.33;66.77;100391.50;2050102;86;30846;-70
2022/07/10 05:22:04;;;;;;;6.78;1.82;;;;;;;16.37;66.55;100393.86;2051131;86;29552;-70
2022/07/10 05:25:14;;;;;;;3.37;1.90;;;;;;;16.46;66.43;100389.63;2053389;86;27932;-71
2022/07/10 05:28:21;;;;;;;8.85;1.80;;;;;;;16.67;66.42;100394.44;2053886;86;28655;-72
2022/07/10 05:31:31;;;;;;;4.75;1.85;;;;;;;17.00;66.27;100394.29;2053469;86;31074;-71
2022/07/10 05:34:41;;;;;;;7.50;1.72;;;;;;;17.90;65.86;100382.85;2053580;86;33030;-72
2022/07/10 05:37:43;;;;;;;3.62;1.60;;;;;;;19.15;64.48;100382.33;2056470;86;30005;-73
2022/07/10 05:40:45;;;;;;;9.33;1.77;;;;;;;20.14;62.83;100383.35;2056853;86;27998;-72
2022/07/10 05:43:47;;;;;;;14.43;1.90;;;;;;;20.93;61.46;100374.42;2056752;86;28632;-71
2022/07/10 05:46:57;;;;;;;9.78;1.80;;;;;;;21.81;59.86;100377.61;2053908;86;31024;-71
2022/07/10 05:50:08;;;;;;;3.25;1.75;;;;;;;21.89;57.60;100378.75;2053487;86;33397;-71
2022/07/10 05:53:10;;;;;;;6.05;1.37;;;;;;;21.86;56.91;100378.52;2056915;86;29334;-70
2022/07/10 05:56:12;;;;;;;6.08;1.80;;;;;;;21.73;55.46;100387.05;2056601;86;27697;-71
2022/07/10 05:59:14;;;;;;;6.15;1.80;;;;;;;21.74;56.01;100376.98;2056818;86;28480;-71
2022/07/10 06:02:16;;;;;;;7.28;1.55;;;;;;;22.00;54.90;100388.98;2056249;86;31019;-71
2022/07/10 06:05:23;;;;;;;4.67;1.55;;;;;;;22.46;54.11;100373.23;2059091;85;34310;-71
2022/07/10 06:08:28;;;;;;;5.42;1.42;;;;;;;23.20;54.41;100375.87;2065605;85;29436;-71
2022/07/10 06:11:31;;;;;;;2.58;1.40;;;;;;;23.93;51.78;100380.72;2091935;85;27714;-72
2022/07/10 06:14:33;;;;;;;5.37;1.42;;;;;;;23.65;50.77;100374.90;2090546;84;28504;-72
2022/07/10 06:17:35;;;;;;;4.67;1.52;;;;;;;23.25;50.83;100378.16;2092163;85;31016;-72
2022/07/10 06:20:37;;;;;;;8.45;1.92;;;;;;;22.94;50.82;100383.47;2068457;85;33031;-72
2022/07/10 06:23:39;;;;;;;5.00;1.40;;;;;;;22.57;50.61;100385.81;2091826;85;29458;-72
2022/07/10 06:26:41;;;;;;;5.12;1.42;;;;;;;22.33;50.30;100389.91;2068365;85;27672;-71
2022/07/10 06:29:43;;;;;;;5.00;1.67;;;;;;;22.07;50.29;100391.09;2092796;85;28674;-70
2022/07/10 06:32:45;;;;;;;4.03;1.37;;;;;;;21.78;50.10;100389.33;2092331;85;31008;-71
2022/07/10 06:35:47;;;;;;;5.58;1.30;;;;;;;21.55;49.88;100395.06;2092280;85;32915;-71
2022/07/10 06:38:49;;;;;;;5.62;1.40;;;;;;;21.40;50.07;100391.42;2092350;85;29318;-71
2022/07/10 06:41:52;;;;;;;4.25;1.17;;;;;;;21.32;50.32;100395.39;2092440;84;27973;-72
2022/07/10 06:44:54;;;;;;;6.72;1.40;;;;;;;21.21;50.01;100386.85;2091993;85;28544;-71
2022/07/10 06:47:57;;;;;;;4.12;1.42;;;;;;;21.16;49.85;100389.14;2091359;84;31034;-71
2022/07/10 06:50:59;;;;;;;5.95;1.22;;;;;;;21.15;49.55;100385.20;2090744;85;33022;-71
2022/07/10 06:54:02;;;;;;;3.62;1.37;;;;;;;21.23;49.91;100378.04;2092123;85;29332;-72
2022/07/10 06:57:05;;;;;;;5.15;1.02;;;;;;;21.51;49.57;100381.39;2092229;84;27853;-72
2022/07/10 07:00:09;;;;;;;5.80;1.32;;;;;;;21.80;49.20;100377.25;2091894;85;28697;-72
2022/07/10 07:03:12;;;;;;;3.87;1.47;;;;;;;21.89;48.64;100375.50;2091602;85;31083;-71
2022/07/10 07:06:13;;;;;;;4.97;1.22;;;;;;;22.07;48.27;100374.23;2090980;85;32996;-70
2022/07/10 07:09:16;;;;;;;3.30;1.20;;;;;;;22.10;47.92;100377.16;2091203;85;29399;-72
2022/07/10 07:12:17;;;;;;;3.72;1.22;;;;;;;22.01;47.46;100372.09;2091502;84;27620;-70
2022/07/10 07:15:23;;;;;;;4.67;1.20;;;;;;;21.69;46.83;100381.52;2091375;84;28703;-71
2022/07/10 07:18:32;;;;;;;3.50;1.27;;;;;;;21.35;47.39;100382.81;2065507;85;28670;-71
2022/07/10 07:25:00;;;;;;;5.70;1.60;;;;;;;20.78;47.28;100386.72;2088068;85;29376;-70
2022/07/10 07:28:10;;;;;;;4.00;1.05;;;;;;;20.39;47.79;100390.17;2088157;85;27926;-69
2022/07/10 07:31:19;;;;;;;6.08;1.10;;;;;;;20.13;47.97;100392.02;2089941;85;28623;-68
2022/07/10 07:34:23;;;;;;;4.53;1.20;;;;;;;19.91;48.04;100396.27;2087715;85;31019;-69
2022/07/10 07:37:41;;;;;;;4.73;1.70;;;;;;;19.79;48.40;100389.52;2086969;85;32979;-70
2022/07/10 07:40:49;;;;;;;4.42;1.22;;;;;;;19.67;48.21;100391.45;2083893;85;29467;-69
2022/07/10 07:43:53;;;;;;;5.70;1.22;;;;;;;19.54;48.51;100392.15;2087178;85;28109;-70
2022/07/10 07:46:55;;;;;;;5.95;1.42;;;;;;;19.55;48.91;100385.72;2091421;85;28644;-69
2022/07/10 07:50:03;;;;;;;8.80;1.67;;;;;;;19.47;48.40;100382.31;2088109;84;31015;-69
2022/07/10 07:53:08;;;;;;;5.10;1.37;;;;;;;19.43;48.70;100384.91;2088377;85;32972;-69
2022/07/10 07:56:18;;;;;;;3.55;1.02;;;;;;;19.55;49.11;100380.28;2093722;84;29348;-69
2022/07/10 07:59:30;;;;;;;4.55;1.30;;;;;;;19.66;48.95;100391.08;2088294;85;46181;-69
2022/07/10 08:02:38;;;;;;;5.75;0.82;;;;;;;19.73;48.65;100380.53;2088079;85;29994;-69
2022/07/10 08:05:47;;;;;;;8.80;1.47;;;;;;;19.79;48.93;100378.65;2088798;85;31078;-70
2022/07/10 08:08:56;;;;;;;6.87;1.20;;;;;;;19.89;48.74;100375.50;2088496;85;32983;-69
2022/07/10 08:12:04;;;;;;;5.62;1.32;;;;;;;20.03;48.39;100385.17;2088969;85;29536;-70
2022/07/10 08:15:13;;;;;;;4.50;1.05;;;;;;;20.22;48.45;100386.75;2088575;85;27935;-70
2022/07/10 08:18:21;;;;;;;4.55;1.10;;;;;;;20.83;48.34;100374.92;2089736;85;28666;-69
2022/07/10 08:21:30;;;;;;;3.40;0.93;;;;;;;21.17;47.59;100380.48;2088397;85;31070;-70
2022/07/10 08:24:35;;;;;;;6.42;1.45;;;;;;;21.44;47.33;100379.72;2088382;85;33243;-69
2022/07/10 08:27:48;;;;;;;3.08;1.20;;;;;;;21.89;47.75;100370.56;2091181;85;29342;-70
2022/07/10 08:30:56;;;;;;;;;;;;;;;22.49;47.42;100367.95;2087979;85;28037;-69
2022/07/10 08:34:01;;;;;;;4.80;1.30;;;;;;;23.14;46.75;100371.03;2087298;84;28665;-69
2022/07/10 08:37:07;;;;;;;4.33;1.20;;;;;;;23.30;45.90;100373.94;2089666;84;31087;-69
2022/07/10 08:40:17;;;;;;;3.33;1.00;;;;;;;23.30;45.06;100371.73;2086725;85;33001;-67
2022/07/10 08:43:25;;;;;;;5.92;1.00;;;;;;;22.99;44.87;100386.61;2085814;85;29737;-70
2022/07/10 08:46:28;;;;;;;4.60;1.42;;;;;;;22.43;45.53;100401.67;2091757;85;27628;-69
2022/07/10 08:49:31;;;;;;;3.20;1.40;;;;;;;21.80;46.22;100408.61;2091259;85;28663;-70
2022/07/10 08:52:41;;;;;;;4.10;1.27;;;;;;;21.27;47.13;100398.16;2091010;85;31020;-70
2022/07/10 08:55:47;;;;;;;3.75;1.00;;;;;;;20.82;48.32;100397.70;2084429;85;33036;-71
2022/07/10 08:58:55;;;;;;;4.05;1.37;;;;;;;20.42;48.99;100406.23;2091930;85;33631;-70
2022/07/10 09:02:00;;;;;;;4.85;1.25;;;;;;;20.16;49.55;100398.56;2091083;85;27915;-69
2022/07/10 09:05:09;;;;;;;4.50;1.20;;;;;;;19.91;50.23;100397.63;2082840;85;29312;-69
2022/07/10 09:08:24;;;;;;;5.78;0.95;;;;;;;19.83;50.96;100395.55;2084618;85;31089;-69
2022/07/10 09:11:33;;;;;;;2.02;1.10;;;;;;;19.88;51.03;100399.61;2050916;85;32724;-68
2022/07/10 09:14:43;;;;;;;3.45;1.40;;;;;;;20.07;50.74;100399.87;2080459;85;29398;-68
2022/07/10 09:18:07;;;;;;;2.98;0.88;;;;;;;20.21;50.82;100399.50;2080989;85;27914;-69
2022/07/10 09:21:11;;;;;;;2.58;1.00;;;;;;;20.48;50.88;100400.73;2084895;85;28647;-70
2022/07/10 09:24:19;;;;;;;;;;;;;;;20.78;50.42;100386.24;2084159;85;31021;-67
2022/07/10 09:27:24;;;;;;;4.03;0.75;;;;;;;21.17;49.33;100388.13;2082189;85;33036;-70
2022/07/10 09:30:40;;;;;;;2.83;1.10;;;;;;;21.44;48.97;100383.80;2079981;84;29372;-75
2022/07/10 09:33:42;;;;;;;4.20;1.22;;;;;;;21.46;48.71;100383.16;2084958;85;27513;-73
2022/07/10 09:36:44;;;;;;;5.53;1.40;;;;;;;21.62;48.72;100379.01;2084782;85;28643;-71
2022/07/10 09:40:05;;;;;;;5.45;1.40;;;;;;;21.51;47.87;100382.23;2084896;85;31010;-68
2022/07/10 09:43:11;;;;;;;4.97;0.93;;;;;;;21.19;47.84;100394.30;2080987;85;33107;-71
2022/07/10 09:46:21;;;;;;;4.30;1.07;;;;;;;20.72;46.74;100386.76;2084735;85;29321;-68
2022/07/10 09:49:31;;;;;;;3.25;0.60;;;;;;;20.24;47.13;100399.72;2081384;85;27988;-67
2022/07/10 09:52:44;;;;;;;2.55;0.57;;;;;;;19.95;47.30;100403.16;2080886;85;28590;-66
2022/07/10 09:55:56;;;;;;;1.82;0.40;;;;;;;19.64;47.50;100396.30;2081261;85;31633;-66
2022/07/10 09:59:09;;;;;;;2.15;0.70;;;;;;;19.56;48.46;100401.03;2081391;85;33067;-67
2022/07/10 10:02:25;;;;;;;2.07;1.07;;;;;;;19.51;48.90;100399.20;2081359;85;30650;-67
2022/07/10 10:06:05;;;;;;;2.35;0.75;;;;;;;19.51;48.90;100399.20;2081192;84;27996;-68
2022/07/10 10:09:29;;;;;;;3.12;0.98;;;;;;;19.41;48.96;100398.65;2081647;85;29998;-69
2022/07/10 10:12:48;;;;;;;3.22;1.10;;;;;;;19.41;49.39;100397.29;2084288;85;31059;-72
2022/07/10 10:15:56;;;;;;;2.45;0.95;;;;;;;19.61;49.47;100399.27;2077395;85;30850;-69
2022/07/10 10:22:28;;;;;;;2.58;0.72;;;;;;;20.07;48.77;100388.99;2084221;85;27915;-72
2022/07/10 10:25:33;;;;;;;1.15;0.70;;;;;;;20.41;49.26;100393.63;2084456;85;28611;-71
2022/07/10 10:28:35;;;;;;;1.37;0.80;;;;;;;20.74;48.73;100390.72;2084485;85;31047;-70
2022/07/10 10:31:39;;;;;;;2.45;1.05;;;;;;;21.00;48.50;100390.20;2084279;85;32975;-72
2022/07/10 10:34:44;;;;;;;1.95;0.98;;;;;;;21.25;48.23;100377.88;2084298;85;29334;-71
2022/07/10 10:37:51;;;;;;;2.50;0.80;;;;;;;21.46;47.47;100382.32;2084389;85;27777;-71
2022/07/10 10:40:53;;;;;;;1.57;0.70;;;;;;;21.66;47.20;100368.17;2083261;85;28745;-71
2022/07/10 10:44:16;;;;;;;2.92;0.90;;;;;;;21.87;46.68;100373.42;2083874;85;30986;-71
2022/07/10 10:47:19;;;;;;;2.35;1.00;;;;;;;21.96;46.10;100373.91;2056485;85;32792;-72
2022/07/10 10:50:51;;;;;;;1.55;0.50;;;;;;;22.07;45.91;100374.73;2084113;85;29430;-70
2022/07/10 10:54:13;;;;;;;4.47;1.00;;;;;;;22.16;45.71;100377.42;2080570;85;28006;-72
2022/07/10 10:57:17;;;;;;;4.03;1.07;;;;;;;22.38;45.62;100366.25;2083831;85;28937;-75
2022/07/10 11:00:43;;;;;;;2.50;0.82;;;;;;;22.63;45.48;100356.52;2083637;85;31066;-73
2022/07/10 11:04:12;;;;;;;1.32;0.80;;;;;;;22.85;45.33;100344.28;2056182;84;33759;-70
2022/07/10 11:07:56;;;;;;;1.72;0.82;;;;;;;23.07;44.90;100347.56;2013854;87;29408;-74
2022/07/10 11:11:01;;;;;;;3.90;0.85;;;;;;;22.96;44.76;100358.74;2013882;88;27951;-70
2022/07/10 11:14:04;;;;;;;1.80;0.80;;;;;;;22.86;44.07;100351.46;2014541;88;28722;-71
2022/07/10 11:17:08;;;;;;;2.02;0.60;;;;;;;22.85;44.09;100342.07;2014340;88;31035;-71
2022/07/10 11:20:11;;;;;;;2.37;0.90;;;;;;;22.85;43.75;100343.44;2014686;88;33148;-69
2022/07/10 11:23:54;;;;;;;2.47;0.40;;;;;;;22.74;41.46;100352.70;2011053;88;29376;-74
2022/07/10 11:27:16;;;;;;;2.47;0.75;;;;;;;22.66;42.76;100349.91;2014296;88;28055;-71
2022/07/10 11:30:18;;;;;;;2.27;0.80;;;;;;;22.73;42.12;100344.16;2014506;88;28677;-73
2022/07/10 11:33:22;;;;;;;4.03;0.62;;;;;;;22.79;42.03;100349.51;1992639;88;32470;-72
2022/07/10 11:36:32;;;;;;;4.20;0.72;;;;;;;22.85;41.84;100342.07;1993077;88;32976;-70
2022/07/10 11:39:31;;;;;;;3.12;0.90;;;;;;;22.75;41.46;100348.97;2013842;88;29513;-72
2022/07/10 11:42:53;;;;;;;4.17;0.68;;;;;;;22.66;41.33;100348.02;2042486;85;27963;-73
2022/07/10 11:45:59;;;;;;;2.02;0.60;;;;;;;22.46;41.53;100347.30;2083663;85;28660;-71
2022/07/10 11:49:05;;;;;;;1.32;0.57;;;;;;;22.33;41.77;100350.34;2083275;85;31304;-73
2022/07/10 11:52:08;;;;;;;1.60;0.70;;;;;;;22.28;42.10;100346.70;2084728;85;33040;-68
2022/07/10 11:55:23;;;;;;;4.62;1.10;;;;;;;22.19;41.78;100348.96;2080926;85;29379;-70
2022/07/10 11:58:30;;;;;;;2.92;0.80;;;;;;;22.31;42.52;100352.36;2081267;85;27734;-68
2022/07/10 12:01:37;;;;;;;2.20;0.72;;;;;;;22.40;41.74;100347.86;2057100;85;28508;-71
2022/07/10 12:04:42;;;;;;;3.58;0.82;;;;;;;22.16;41.83;100356.11;2078698;84;31127;-74
2022/07/10 12:07:46;;;;;;;2.65;0.65;;;;;;;22.05;41.80;100362.61;2084517;85;33047;-74
2022/07/10 12:10:48;;;;;;;1.72;0.80;;;;;;;21.97;42.11;100362.00;2084477;85;29467;-74
2022/07/10 12:13:53;;;;;;;2.52;0.70;;;;;;;21.90;42.16;100364.11;2056781;85;27633;-72
2022/07/10 12:16:58;;;;;;;1.60;0.70;;;;;;;21.98;42.63;100365.56;2056799;85;28691;-74
2022/07/10 12:20:00;;;;;;;;;;;;;;;22.12;42.75;100368.33;2086085;85;30995;-72
2022/07/10 12:23:10;;;;;;;2.47;0.88;;;;;;;22.21;42.27;100367.93;2079552;85;33022;-70
2022/07/10 12:26:13;;;;;;;3.92;0.82;;;;;;;22.27;42.75;100360.00;2056090;85;29884;-71
2022/07/10 12:29:30;;;;;;;3.95;0.80;;;;;;;22.25;42.60;100352.46;2080132;85;27972;-71
2022/07/10 12:32:36;;;;;;;2.17;1.07;;;;;;;22.10;42.73;100380.73;2080191;85;28766;-70
2022/07/10 12:35:54;;;;;;;;;;;;;;;21.77;43.31;100388.97;2059647;85;31096;-72
2022/07/10 12:39:02;;;;;;;3.25;1.05;;;;;;;21.50;44.58;100398.23;2080415;85;32814;-69
2022/07/10 12:42:07;;;;;;;2.85;1.30;;;;;;;21.16;44.15;100385.05;2053180;85;29325;-70
2022/07/10 12:45:18;;;;;;;2.47;0.70;;;;;;;21.08;43.85;100393.09;2053331;85;27984;-73
2022/07/10 12:48:28;;;;;;;6.85;1.07;;;;;;;20.98;42.75;100385.39;2080240;85;30015;-70
2022/07/10 12:51:48;;;;;;;6.60;1.20;;;;;;;20.98;43.04;100393.56;2080145;85;31444;-71
2022/07/10 12:55:18;;;;;;;2.87;1.10;;;;;;;20.92;42.97;100395.00;2084149;85;32862;-68
2022/07/10 12:58:28;;;;;;;2.40;1.00;;;;;;;20.88;43.15;100399.00;2080350;85;28725;-70
2022/07/10 13:01:46;;;;;;;2.60;0.80;;;;;;;20.73;42.97;100399.37;2081100;85;27869;-70
2022/07/10 13:04:59;;;;;;;3.60;1.40;;;;;;;20.63;43.64;100394.42;2081796;84;28648;-70
2022/07/10 13:08:24;;;;;;;4.05;1.32;;;;;;;20.55;44.55;100396.95;2096185;84;32434;-71
2022/07/10 13:11:27;;;;;;;4.00;1.20;;;;;;;20.57;44.78;100399.92;2032855;86;33318;-75
2022/07/10 13:14:30;;;;;;;4.95;1.82;;;;;;;20.63;45.30;100403.95;2100357;84;29349;-69
2022/07/10 13:17:46;;;;;;;3.55;1.40;;;;;;;20.73;45.67;100400.73;2096698;84;28043;-68
2022/07/10 13:20:57;;;;;;;8.38;2.12;;;;;;;20.78;46.15;100391.69;2028642;86;28925;-70
2022/07/10 13:24:09;;;;;;;4.92;1.42;;;;;;;20.91;46.58;100389.19;2028554;87;31873;-70
2022/07/10 13:27:17;;;;;;;3.17;1.50;;;;;;;21.06;46.73;100384.20;2028049;87;33026;-68
2022/07/10 13:30:25;;;;;;;2.45;1.57;;;;;;;21.25;47.07;100378.75;2028299;87;29325;-70
2022/07/10 13:33:35;;;;;;;4.55;1.00;;;;;;;21.45;47.08;100374.62;2028254;87;28084;-71
2022/07/10 13:36:43;;;;;;;4.50;1.25;;;;;;;21.55;46.16;100375.49;2028271;87;28664;-72
2022/07/10 13:39:47;;;;;;;4.25;1.20;;;;;;;21.67;45.69;100363.96;2026067;87;31185;-74
2022/07/10 13:42:53;;;;;;;3.37;0.93;;;;;;;21.77;45.05;100369.36;2020932;87;33024;-70
2022/07/10 13:46:03;;;;;;;2.22;0.98;;;;;;;21.76;45.19;100359.98;1982843;88;29330;-68
2022/07/10 13:49:12;;;;;;;6.45;1.10;;;;;;;21.87;44.83;100362.52;1999569;87;27928;-70
2022/07/10 13:52:18;;;;;;;3.05;0.98;;;;;;;21.87;44.35;100360.30;2021469;87;28701;-69
2022/07/10 13:55:23;;;;;;;5.10;1.22;;;;;;;21.80;44.20;100362.25;2022086;87;31054;-69
2022/07/10 13:58:34;;;;;;;4.33;1.00;;;;;;;21.62;43.32;100359.44;2046171;84;32982;-69
2022/07/10 14:01:43;;;;;;;2.67;1.00;;;;;;;21.49;43.51;100350.69;2097650;84;29404;-74
2022/07/10 14:04:51;;;;;;;2.33;0.82;;;;;;;21.33;43.64;100346.70;2073890;84;28064;-68
2022/07/10 14:07:57;;;;;;;2.33;0.82;;;;;;;21.14;43.26;100339.38;2094246;84;28669;-69
2022/07/10 14:11:02;;;;;;;3.85;1.02;;;;;;;21.06;43.90;100333.80;2068455;84;31036;-66
2022/07/10 14:14:08;;;;;;;2.50;1.00;;;;;;;21.09;43.72;100331.64;2094657;84;32957;-67
2022/07/10 14:17:13;;;;;;;3.00;1.15;;;;;;;21.12;42.82;100340.53;2094532;84;29326;-70
2022/07/10 14:20:26;;;;;;;3.60;1.15;;;;;;;21.15;42.47;100331.56;2068580;84;28050;-75
2022/07/10 14:23:48;;;;;;;2.52;0.90;;;;;;;21.13;42.48;100346.34;2097133;84;28694;-69
2022/07/10 14:27:00;;;;;;;2.45;1.20;;;;;;;21.07;42.39;100353.23;2093887;84;29970;-68
2022/07/10 14:30:18;;;;;;;6.75;1.32;;;;;;;21.09;42.51;100352.59;2094107;84;33023;-68
2022/07/10 14:33:41;;;;;;;3.90;1.80;;;;;;;21.21;42.43;100355.52;2091743;84;28065;-71
2022/07/10 14:37:13;;;;;;;3.70;1.10;;;;;;;21.32;42.50;100357.23;2094022;84;27446;-69
2022/07/10 14:40:42;;;;;;;3.45;1.20;;;;;;;21.48;42.12;100360.72;2090174;84;28001;-72
2022/07/10 14:43:52;;;;;;;4.53;1.20;;;;;;;21.65;42.31;100365.09;2092985;84;27938;-76